createdAt,value
2023-11-19T07:40:57.132Z,97357.09
2023-11-19T07:43:24.483Z,97327.91
2023-11-19T07:45:51.202Z,97337.50
2023-11-19T07:48:19.183Z,97325.31
2023-11-19T07:50:45.953Z,97353.97
2023-11-19T07:53:13.755Z,97349.91
2023-11-19T07:55:42.660Z,97344.84
2023-11-19T07:58:09.648Z,97353.81
2023-11-19T08:00:36.225Z,97325.06
2023-11-19T08:03:03.165Z,97327.53
2023-11-19T08:05:30.028Z,97323.75
2023-11-19T08:07:56.775Z,97321.72
2023-11-19T08:10:23.732Z,97347.06
2023-11-19T08:12:50.460Z,97330.06
2023-11-19T08:15:32.064Z,97330.75
2023-11-19T08:17:59.234Z,97328.97
2023-11-19T08:20:25.914Z,97329.50
2023-11-19T08:22:52.557Z,97351.34
2023-11-19T08:25:19.217Z,97339.09
2023-11-19T08:27:45.848Z,97319.00
2023-11-19T08:30:12.973Z,97331.19
2023-11-19T08:32:39.834Z,97328.72
2023-11-19T08:35:07.091Z,97311.25
2023-11-19T08:37:34.229Z,97318.00
2023-11-19T08:40:02.131Z,97350.84
2023-11-19T08:42:28.801Z,97354.00
2023-11-19T08:44:55.779Z,97346.13
2023-11-19T08:47:23.935Z,97355.53
2023-11-19T08:52:24.152Z,97344.81
2023-11-19T08:54:50.913Z,97321.38
2023-11-19T08:57:17.783Z,97323.53
2023-11-19T08:59:46.788Z,97321.81
2023-11-19T09:02:13.570Z,97356.78
2023-11-19T09:04:40.302Z,97347.41
2023-11-19T09:07:07.038Z,97342.97
2023-11-19T09:09:38.236Z,97339.38
2023-11-19T09:12:05.191Z,97314.63
2023-11-19T09:14:32.755Z,97316.66
2023-11-19T09:16:59.776Z,97347.56
2023-11-19T09:19:27.446Z,97348.19
2023-11-19T09:21:54.708Z,97342.31
2023-11-19T09:24:21.412Z,97343.72
2023-11-19T09:26:48.113Z,97337.31
2023-11-19T09:29:15.717Z,97310.56
2023-11-19T09:31:42.416Z,97306.53
2023-11-19T09:34:09.292Z,97345.16
2023-11-19T09:36:35.975Z,97319.72
2023-11-19T09:39:03.276Z,97328.19
2023-11-19T09:41:31.689Z,97315.09
2023-11-19T09:43:58.352Z,97335.66
2023-11-19T09:46:27.303Z,97324.47
2023-11-19T09:48:56.018Z,97320.25
2023-11-19T09:51:25.797Z,97297.53
2023-11-19T09:53:52.629Z,97307.63
2023-11-19T09:56:19.701Z,97301.09
2023-11-19T09:58:46.406Z,97306.97
2023-11-19T10:03:45.163Z,97321.00
2023-11-19T10:06:12.186Z,97327.91
2023-11-19T10:08:42.568Z,97308.41
2023-11-19T10:11:11.677Z,97318.50
2023-11-19T10:13:43.768Z,97330.78
2023-11-19T10:16:13.175Z,97308.41
2023-11-19T10:18:47.095Z,97287.09
2023-11-19T10:21:18.415Z,97314.75
2023-11-19T10:23:53.226Z,97310.00
2023-11-19T10:26:21.088Z,97281.91
2023-11-19T10:28:49.125Z,97300.38
2023-11-19T10:31:17.232Z,97277.72
2023-11-19T10:33:47.935Z,97281.56
2023-11-19T10:36:15.846Z,97284.72
2023-11-19T10:38:53.160Z,97294.28
2023-11-19T10:41:30.009Z,97277.63
2023-11-19T10:43:56.874Z,97273.25
2023-11-19T10:46:24.498Z,97267.69
2023-11-19T10:48:51.333Z,97256.09
2023-11-19T10:51:24.435Z,97253.19
2023-11-19T10:53:54.110Z,97262.91
2023-11-19T10:56:25.933Z,97241.00
2023-11-19T10:58:55.357Z,97268.63
2023-11-19T11:01:25.958Z,97290.06
2023-11-19T11:03:55.558Z,97264.34
2023-11-19T11:06:23.589Z,97244.22
2023-11-19T11:08:50.283Z,97272.41
2023-11-19T11:11:18.634Z,97253.81
2023-11-19T11:13:46.836Z,97257.53
2023-11-19T11:16:14.837Z,97250.38
2023-11-19T11:18:41.614Z,97257.06
2023-11-19T11:21:13.897Z,97253.88
2023-11-19T11:24:02.568Z,97272.94
2023-11-19T11:26:48.307Z,97248.69
2023-11-19T11:29:27.530Z,97280.50
2023-11-19T11:32:26.215Z,97275.69
2023-11-19T11:34:58.872Z,97284.03
2023-11-19T11:37:35.967Z,97258.28
2023-11-19T11:40:11.530Z,97255.41
2023-11-19T11:42:38.842Z,97258.19
2023-11-19T11:45:11.309Z,97265.34
2023-11-19T11:47:44.123Z,97257.28
2023-11-19T11:50:14.900Z,97256.44
2023-11-19T11:53:00.132Z,97247.06
2023-11-19T11:55:38.052Z,97222.69
2023-11-19T11:58:06.910Z,97249.47
2023-11-19T12:00:38.857Z,97225.97
2023-11-19T12:03:26.567Z,97226.59
2023-11-19T12:05:53.354Z,97210.44
2023-11-19T12:08:26.574Z,97231.69
2023-11-19T12:10:55.677Z,97230.56
2023-11-19T12:13:25.486Z,97206.13
2023-11-19T12:15:58.357Z,97238.19
2023-11-19T12:18:27.849Z,97209.09
2023-11-19T12:20:57.695Z,97216.28
2023-11-19T12:23:25.035Z,97210.97
2023-11-19T12:25:51.759Z,97192.25
2023-11-19T12:28:18.850Z,97204.03
2023-11-19T12:30:46.228Z,97212.53
2023-11-19T12:33:14.063Z,97175.78
2023-11-19T12:35:44.730Z,97172.63
2023-11-19T12:38:26.731Z,97198.03
2023-11-19T12:41:06.659Z,97173.50
2023-11-19T12:43:51.129Z,97175.25
2023-11-19T12:46:21.468Z,97178.63
2023-11-19T12:48:52.608Z,97167.44
2023-11-19T12:51:19.402Z,97182.63
2023-11-19T12:53:51.131Z,97172.25
2023-11-19T12:56:17.874Z,97170.91
2023-11-19T12:58:44.522Z,97174.66
2023-11-19T13:01:16.208Z,97167.97
2023-11-19T13:03:42.994Z,97160.25
2023-11-19T13:06:12.438Z,97166.47
2023-11-19T13:08:46.832Z,97139.97
2023-11-19T13:11:14.589Z,97171.78
2023-11-19T13:14:16.840Z,97161.81
2023-11-19T13:16:43.985Z,97151.94
2023-11-19T13:19:11.213Z,97164.38
2023-11-19T13:21:39.127Z,97165.88
2023-11-19T13:24:06.902Z,97166.59
2023-11-19T13:26:33.424Z,97136.94
2023-11-19T13:29:00.351Z,97137.50
2023-11-19T13:31:27.531Z,97135.66
2023-11-19T13:33:54.319Z,97139.41
2023-11-19T13:36:21.166Z,97126.72
2023-11-19T13:38:48.151Z,97111.84
2023-11-19T13:41:15.156Z,97130.72
2023-11-19T13:43:41.864Z,97121.81
2023-11-19T13:46:11.381Z,97122.19
2023-11-19T13:48:38.885Z,97141.16
2023-11-19T13:51:06.636Z,97114.72
2023-11-19T13:53:51.616Z,97122.53
2023-11-19T13:56:18.924Z,97112.09
2023-11-19T13:58:45.541Z,97131.50
2023-11-19T14:03:40.983Z,97133.47
2023-11-19T14:06:09.507Z,97113.78
2023-11-19T14:08:36.381Z,97104.13
2023-11-19T14:11:03.259Z,97106.28
2023-11-19T14:13:30.122Z,97088.75
2023-11-19T14:15:57.041Z,97106.72
2023-11-19T14:18:24.155Z,97132.66
2023-11-19T14:20:50.761Z,97114.88
2023-11-19T14:23:17.479Z,97121.06
2023-11-19T14:25:44.589Z,97137.13
2023-11-19T14:28:11.303Z,97131.81
2023-11-19T14:30:38.204Z,97128.34
2023-11-19T14:33:06.146Z,97132.72
2023-11-19T14:35:34.855Z,97116.56
2023-11-19T14:38:06.428Z,97131.41
2023-11-19T14:43:03.230Z,97129.94
2023-11-19T14:45:36.204Z,97123.84
2023-11-19T14:48:08.418Z,97120.09
2023-11-19T14:50:38.062Z,97132.38
2023-11-19T14:53:04.957Z,97118.06
2023-11-19T14:55:34.983Z,97112.56
2023-11-19T14:58:07.593Z,97127.63
2023-11-19T15:00:36.531Z,97139.66
2023-11-19T15:03:03.383Z,97123.44
2023-11-19T15:05:30.662Z,97134.13
2023-11-19T15:07:57.360Z,97109.81
2023-11-19T15:10:25.927Z,97138.44
2023-11-19T15:12:54.573Z,97103.19
2023-11-19T15:18:08.828Z,97130.06
2023-11-19T15:20:35.571Z,97106.78
2023-11-19T15:23:02.375Z,97119.94
2023-11-19T15:25:29.071Z,97115.66
2023-11-19T15:30:37.945Z,97112.75
2023-11-19T15:33:04.622Z,97128.44
2023-11-19T15:35:31.316Z,97129.94
2023-11-19T15:38:01.085Z,97129.50
2023-11-19T15:41:48.915Z,97126.59
2023-11-19T15:44:41.178Z,97123.09
2023-11-19T15:48:03.855Z,97122.53
2023-11-19T15:50:30.544Z,97127.19
2023-11-19T15:53:00.394Z,97138.13
2023-11-19T15:55:27.186Z,97143.84
2023-11-19T15:57:53.828Z,97134.00
2023-11-19T16:00:22.781Z,97129.03
2023-11-19T16:02:57.737Z,97126.13
2023-11-19T16:05:27.242Z,97139.53
2023-11-19T16:07:53.878Z,97129.44
2023-11-19T16:10:25.721Z,97159.63
2023-11-19T16:12:53.289Z,97128.34
2023-11-19T16:17:51.146Z,97157.75
2023-11-19T16:20:17.928Z,97163.66
2023-11-19T16:22:44.803Z,97116.69
2023-11-19T16:25:13.542Z,97152.31
2023-11-19T16:27:43.731Z,97177.72
2023-11-19T16:30:11.016Z,97160.50
2023-11-19T16:32:53.048Z,97183.09
2023-11-19T16:35:19.845Z,97181.50
2023-11-19T16:37:49.415Z,97157.06
2023-11-19T16:40:16.695Z,97149.09
2023-11-19T16:42:43.397Z,97167.66
2023-11-19T16:45:10.559Z,97162.34
2023-11-19T16:47:37.394Z,97161.13
2023-11-19T16:50:04.777Z,97149.75
2023-11-19T16:52:34.579Z,97156.56
2023-11-19T16:55:02.615Z,97163.25
2023-11-19T16:57:29.267Z,97154.69
2023-11-19T16:59:57.577Z,97153.59
2023-11-19T17:02:27.436Z,97164.78
2023-11-19T17:04:54.204Z,97162.94
2023-11-19T17:07:20.913Z,97183.28
2023-11-19T17:09:47.873Z,97165.28
2023-11-19T17:12:14.615Z,97171.78
2023-11-19T17:14:41.384Z,97180.78
2023-11-19T17:17:08.203Z,97182.13
2023-11-19T17:19:34.914Z,97166.94
2023-11-19T17:22:01.557Z,97189.13
2023-11-19T17:24:28.183Z,97188.72
2023-11-19T17:26:54.936Z,97198.00
2023-11-19T17:29:22.913Z,97198.41
2023-11-19T17:31:49.612Z,97198.50
2023-11-19T17:34:16.333Z,97183.06
2023-11-19T17:36:43.086Z,97196.31
2023-11-19T17:39:09.848Z,97185.44
2023-11-19T17:41:36.549Z,97196.94
2023-11-19T17:44:03.284Z,97214.16
2023-11-19T17:46:29.916Z,97194.88
2023-11-19T17:48:56.668Z,97185.88
2023-11-19T17:51:24.078Z,97210.63
2023-11-19T17:53:51.257Z,97179.22
2023-11-19T17:56:18.672Z,97170.19
2023-11-19T17:58:45.501Z,97193.88
2023-11-19T18:01:12.386Z,97197.44
2023-11-19T18:03:39.374Z,97187.75
2023-11-19T18:06:06.887Z,97204.47
2023-11-19T18:08:33.623Z,97199.66
2023-11-19T18:11:00.413Z,97195.81
2023-11-19T18:13:27.038Z,97186.75
2023-11-19T18:15:54.746Z,97212.34
2023-11-19T18:18:22.577Z,97194.50
2023-11-19T18:20:49.569Z,97200.41
2023-11-19T18:23:16.485Z,97166.41
2023-11-19T18:25:43.186Z,97200.28
2023-11-19T18:28:09.871Z,97193.56
2023-11-19T18:30:39.041Z,97229.84
2023-11-19T18:33:05.786Z,97209.75
2023-11-19T18:35:56.932Z,97237.56
2023-11-19T18:41:09.113Z,97229.75
2023-11-19T18:43:35.863Z,97226.38
2023-11-19T18:46:12.037Z,97207.56
2023-11-19T18:49:38.223Z,97229.28
2023-11-19T18:52:08.317Z,97227.53
2023-11-19T18:54:36.410Z,97233.69
2023-11-19T18:57:06.292Z,97223.94
2023-11-19T18:59:58.150Z,97243.50
2023-11-19T19:02:27.063Z,97239.97
2023-11-19T19:04:54.174Z,97200.00
2023-11-19T19:07:31.137Z,97222.00
2023-11-19T19:09:58.812Z,97202.53
2023-11-19T19:12:25.471Z,97213.25
2023-11-19T19:14:53.075Z,97221.72
2023-11-19T19:17:20.396Z,97229.69
2023-11-19T19:19:47.534Z,97221.31
2023-11-19T19:22:14.234Z,97223.97
2023-11-19T19:24:41.008Z,97233.47
2023-11-19T19:27:08.943Z,97245.41
2023-11-19T19:29:35.680Z,97244.31
2023-11-19T19:32:02.345Z,97233.19
2023-11-19T19:34:30.823Z,97241.91
2023-11-19T19:36:58.564Z,97269.19
2023-11-19T19:39:25.663Z,97256.63
2023-11-19T19:41:52.316Z,97257.47
2023-11-19T19:44:20.750Z,97246.66
2023-11-19T19:46:48.200Z,97256.53
2023-11-19T19:49:15.016Z,97242.63
2023-11-19T19:51:41.959Z,97227.81
2023-11-19T19:54:08.730Z,97243.13
2023-11-19T19:56:36.126Z,97223.88
2023-11-19T19:59:02.807Z,97236.91
2023-11-19T20:01:29.462Z,97266.91
2023-11-19T20:03:56.223Z,97255.78
2023-11-19T20:06:25.567Z,97256.06
2023-11-19T20:08:52.875Z,97256.72
2023-11-19T20:11:19.707Z,97245.59
2023-11-19T20:13:46.373Z,97254.47
2023-11-19T20:16:13.394Z,97241.13
2023-11-19T20:18:40.210Z,97251.84
2023-11-19T20:21:09.736Z,97250.88
2023-11-19T20:23:36.582Z,97257.53
2023-11-19T20:26:03.435Z,97280.13
2023-11-19T20:28:30.336Z,97278.09
2023-11-19T20:30:57.047Z,97274.75
2023-11-19T20:33:25.955Z,97261.13
2023-11-19T20:35:52.572Z,97277.88
2023-11-19T20:38:19.248Z,97273.16
2023-11-19T20:40:45.930Z,97298.66
2023-11-19T20:43:12.597Z,97291.34
2023-11-19T20:45:39.941Z,97287.66
2023-11-19T20:48:06.958Z,97289.34
2023-11-19T20:50:35.149Z,97291.34
2023-11-19T20:53:01.926Z,97312.53
2023-11-19T20:55:29.722Z,97302.94
2023-11-19T20:57:58.129Z,97283.97
2023-11-19T21:00:25.621Z,97283.09
2023-11-19T21:02:55.066Z,97276.94
2023-11-19T21:05:21.865Z,97271.91
2023-11-19T21:07:49.488Z,97273.72
2023-11-19T21:10:16.262Z,97300.31
2023-11-19T21:12:43.075Z,97286.34
2023-11-19T21:15:10.281Z,97283.09
2023-11-19T21:17:36.973Z,97282.84
2023-11-19T21:20:04.498Z,97257.00
2023-11-19T21:22:31.359Z,97271.09
2023-11-19T21:24:58.081Z,97286.91
2023-11-19T21:27:24.954Z,97298.09
2023-11-19T21:29:51.693Z,97298.38
2023-11-19T21:32:18.432Z,97282.59
2023-11-19T21:34:45.368Z,97278.41
2023-11-19T21:37:12.081Z,97290.69
2023-11-19T21:39:38.864Z,97263.91
2023-11-19T21:42:06.128Z,97267.38
2023-11-19T21:44:32.806Z,97260.50
2023-11-19T21:46:59.860Z,97296.75
2023-11-19T21:49:26.694Z,97277.09
2023-11-19T21:51:53.430Z,97274.19
2023-11-19T21:54:20.103Z,97274.78
2023-11-19T21:56:46.996Z,97293.50
2023-11-19T21:59:13.807Z,97298.63
2023-11-19T22:01:40.634Z,97298.41
2023-11-19T22:04:07.543Z,97273.06
2023-11-19T22:06:34.455Z,97293.75
2023-11-19T22:09:01.522Z,97296.63
2023-11-19T22:11:29.225Z,97290.13
2023-11-19T22:13:56.360Z,97273.66
2023-11-19T22:16:23.298Z,97264.50
2023-11-19T22:18:50.643Z,97284.56
2023-11-19T22:21:17.457Z,97286.31
2023-11-19T22:23:44.445Z,97311.16
2023-11-19T22:26:11.321Z,97296.03
2023-11-19T22:28:40.404Z,97302.09
2023-11-19T22:31:07.565Z,97292.81
2023-11-19T22:33:34.344Z,97318.63
2023-11-19T22:36:01.143Z,97295.38
2023-11-19T22:38:28.067Z,97320.38
2023-11-19T22:40:55.269Z,97291.91
2023-11-19T22:43:22.068Z,97297.28
2023-11-19T22:45:49.180Z,97309.69
2023-11-19T22:48:15.983Z,97309.78
2023-11-19T22:50:43.090Z,97306.28
2023-11-19T22:53:09.752Z,97307.78
2023-11-19T22:55:36.731Z,97283.78
2023-11-19T22:58:04.478Z,97288.31
2023-11-19T23:00:31.733Z,97278.56
2023-11-19T23:02:59.851Z,97273.41
2023-11-19T23:05:31.154Z,97294.41
2023-11-19T23:07:58.766Z,97279.69
2023-11-19T23:10:25.528Z,97305.47
2023-11-19T23:12:52.650Z,97303.63
2023-11-19T23:15:20.042Z,97305.34
2023-11-19T23:17:46.992Z,97279.78
2023-11-19T23:20:17.421Z,97275.09
2023-11-19T23:22:44.777Z,97298.22
2023-11-19T23:25:12.036Z,97298.34
2023-11-19T23:27:38.941Z,97314.88
2023-11-19T23:30:06.163Z,97305.47
2023-11-19T23:32:32.856Z,97294.59
2023-11-19T23:34:59.523Z,97320.81
2023-11-19T23:37:26.289Z,97323.50
2023-11-19T23:39:53.806Z,97284.53
2023-11-19T23:42:21.433Z,97320.38
2023-11-19T23:44:48.562Z,97307.19
2023-11-19T23:47:15.233Z,97296.69
2023-11-19T23:49:42.337Z,97287.06
2023-11-19T23:52:10.583Z,97280.56
2023-11-19T23:54:37.672Z,97292.81
2023-11-19T23:57:05.108Z,97289.31
2023-11-19T23:59:32.297Z,97273.44
